sensor_id;sensor_type;location;lat;lon;timestamp;pressure;altitude;pressure_sealevel;temperature;humidity
71974;BME280;59840;52.122;5.404;2023-11-22T00:02:17;102945.97;;;4.15;100.00
71974;BME280;59840;52.122;5.404;2023-11-22T00:04:44;102950.81;;;3.92;100.00
71974;BME280;59840;52.122;5.404;2023-11-22T00:07:11;102954.41;;;3.91;100.00
71974;BME280;59840;52.122;5.404;2023-11-22T00:09:38;102951.34;;;3.96;100.00
71974;BME280;59840;52.122;5.404;2023-11-22T00:12:05;102951.88;;;3.99;100.00
71974;BME280;59840;52.122;5.404;2023-11-22T00:14:32;102949.63;;;4.04;100.00
71974;BME280;59840;52.122;5.404;2023-11-22T00:16:59;102966.66;;;4.09;100.00
71974;BME280;59840;52.122;5.404;2023-11-22T00:19:28;102972.19;;;4.06;100.00
71974;BME280;59840;52.122;5.404;2023-11-22T00:21:54;102974.78;;;4.06;100.00
71974;BME280;59840;52.122;5.404;2023-11-22T00:24:21;102981.19;;;3.93;100.00
71974;BME280;59840;52.122;5.404;2023-11-22T00:26:47;102978.28;;;3.79;100.00
71974;BME280;59840;52.122;5.404;2023-11-22T00:29:14;102972.66;;;3.74;100.00
71974;BME280;59840;52.122;5.404;2023-11-22T00:31:41;102981.63;;;3.71;100.00
71974;BME280;59840;52.122;5.404;2023-11-22T00:34:07;102980.25;;;3.67;100.00
71974;BME280;59840;52.122;5.404;2023-11-22T00:36:34;102979.25;;;3.78;100.00
71974;BME280;59840;52.122;5.404;2023-11-22T00:39:00;102989.31;;;3.90;100.00
71974;BME280;59840;52.122;5.404;2023-11-22T00:41:31;102983.06;;;4.01;100.00
71974;BME280;59840;52.122;5.404;2023-11-22T00:43:58;102980.91;;;3.96;100.00
71974;BME280;59840;52.122;5.404;2023-11-22T00:46:24;102970.44;;;3.96;100.00
71974;BME280;59840;52.122;5.404;2023-11-22T00:48:51;102972.19;;;4.06;100.00
71974;BME280;59840;52.122;5.404;2023-11-22T00:51:18;102973.53;;;4.10;100.00
71974;BME280;59840;52.122;5.404;2023-11-22T00:53:46;102976.81;;;4.12;100.00
71974;BME280;59840;52.122;5.404;2023-11-22T00:56:12;102969.78;;;4.12;100.00
71974;BME280;59840;52.122;5.404;2023-11-22T00:58:39;102985.44;;;3.94;100.00
71974;BME280;59840;52.122;5.404;2023-11-22T01:01:05;102988.38;;;3.64;100.00
71974;BME280;59840;52.122;5.404;2023-11-22T01:03:32;102994.22;;;3.48;100.00
71974;BME280;59840;52.122;5.404;2023-11-22T01:05:59;102992.28;;;3.50;100.00
71974;BME280;59840;52.122;5.404;2023-11-22T01:08:25;103006.25;;;3.59;100.00
71974;BME280;59840;52.122;5.404;2023-11-22T01:10:52;103013.97;;;3.51;100.00
71974;BME280;59840;52.122;5.404;2023-11-22T01:13:18;103017.00;;;3.56;100.00
71974;BME280;59840;52.122;5.404;2023-11-22T01:15:45;103020.53;;;3.64;100.00
71974;BME280;59840;52.122;5.404;2023-11-22T01:18:13;103038.25;;;3.61;100.00
71974;BME280;59840;52.122;5.404;2023-11-22T01:20:39;103038.97;;;3.53;100.00
71974;BME280;59840;52.122;5.404;2023-11-22T01:23:06;103030.81;;;3.39;100.00
71974;BME280;59840;52.122;5.404;2023-11-22T01:25:33;103049.25;;;3.27;100.00
71974;BME280;59840;52.122;5.404;2023-11-22T01:27:59;103045.94;;;3.25;100.00
71974;BME280;59840;52.122;5.404;2023-11-22T01:30:27;103044.41;;;3.32;100.00
71974;BME280;59840;52.122;5.404;2023-11-22T01:32:55;103047.56;;;3.36;100.00
71974;BME280;59840;52.122;5.404;2023-11-22T01:35:21;103051.16;;;3.35;100.00
71974;BME280;59840;52.122;5.404;2023-11-22T01:37:48;103047.44;;;3.38;100.00
71974;BME280;59840;52.122;5.404;2023-11-22T01:40:15;103052.09;;;3.44;100.00
71974;BME280;59840;52.122;5.404;2023-11-22T01:42:42;103051.69;;;3.39;100.00
71974;BME280;59840;52.122;5.404;2023-11-22T01:45:09;103058.56;;;3.40;100.00
71974;BME280;59840;52.122;5.404;2023-11-22T01:47:36;103051.41;;;3.42;100.00
71974;BME280;59840;52.122;5.404;2023-11-22T01:50:06;103042.22;;;3.38;100.00
71974;BME280;59840;52.122;5.404;2023-11-22T01:52:33;103039.19;;;3.32;100.00
71974;BME280;59840;52.122;5.404;2023-11-22T01:55:03;103041.41;;;3.27;100.00
71974;BME280;59840;52.122;5.404;2023-11-22T01:57:35;103044.16;;;3.26;100.00
71974;BME280;59840;52.122;5.404;2023-11-22T02:00:04;103047.72;;;3.25;100.00
71974;BME280;59840;52.122;5.404;2023-11-22T02:02:34;103043.19;;;3.27;100.00
71974;BME280;59840;52.122;5.404;2023-11-22T02:05:01;103044.97;;;3.26;100.00
71974;BME280;59840;52.122;5.404;2023-11-22T02:07:27;103052.59;;;3.10;100.00
71974;BME280;59840;52.122;5.404;2023-11-22T02:09:54;103056.16;;;3.09;100.00
71974;BME280;59840;52.122;5.404;2023-11-22T02:12:22;103054.50;;;3.08;100.00
71974;BME280;59840;52.122;5.404;2023-11-22T02:14:48;103054.78;;;3.05;100.00
71974;BME280;59840;52.122;5.404;2023-11-22T02:17:16;103052.31;;;3.03;100.00
71974;BME280;59840;52.122;5.404;2023-11-22T02:19:43;103050.69;;;3.02;100.00
71974;BME280;59840;52.122;5.404;2023-11-22T02:22:10;103056.72;;;2.93;100.00
71974;BME280;59840;52.122;5.404;2023-11-22T02:24:37;103067.69;;;2.97;100.00
71974;BME280;59840;52.122;5.404;2023-11-22T02:27:04;103064.13;;;2.88;100.00
71974;BME280;59840;52.122;5.404;2023-11-22T02:29:30;103054.13;;;2.84;100.00
71974;BME280;59840;52.122;5.404;2023-11-22T02:31:57;103049.31;;;2.89;100.00
71974;BME280;59840;52.122;5.404;2023-11-22T02:34:24;103043.81;;;2.92;100.00
71974;BME280;59840;52.122;5.404;2023-11-22T02:36:50;103044.50;;;2.84;100.00
71974;BME280;59840;52.122;5.404;2023-11-22T02:39:45;103047.94;;;2.85;100.00
71974;BME280;59840;52.122;5.404;2023-11-22T02:42:17;103042.44;;;2.78;100.00
71974;BME280;59840;52.122;5.404;2023-11-22T02:44:43;103043.16;;;2.71;100.00
71974;BME280;59840;52.122;5.404;2023-11-22T02:47:10;103040.84;;;2.67;100.00
71974;BME280;59840;52.122;5.404;2023-11-22T02:49:37;103043.16;;;2.71;100.00
71974;BME280;59840;52.122;5.404;2023-11-22T02:52:04;103041.25;;;2.63;100.00
71974;BME280;59840;52.122;5.404;2023-11-22T02:54:32;103032.59;;;2.62;100.00
71974;BME280;59840;52.122;5.404;2023-11-22T02:56:58;103036.03;;;2.63;100.00
71974;BME280;59840;52.122;5.404;2023-11-22T02:59:26;103028.63;;;2.58;100.00
71974;BME280;59840;52.122;5.404;2023-11-22T03:01:53;103032.19;;;2.57;100.00
71974;BME280;59840;52.122;5.404;2023-11-22T03:04:20;103036.56;;;2.47;100.00
71974;BME280;59840;52.122;5.404;2023-11-22T03:06:46;103035.63;;;2.29;100.00
71974;BME280;59840;52.122;5.404;2023-11-22T03:09:13;103034.94;;;2.27;100.00
71974;BME280;59840;52.122;5.404;2023-11-22T03:11:40;103038.63;;;2.34;100.00
71974;BME280;59840;52.122;5.404;2023-11-22T03:14:07;103054.28;;;2.34;100.00
71974;BME280;59840;52.122;5.404;2023-11-22T03:16:38;103054.41;;;2.32;100.00
71974;BME280;59840;52.122;5.404;2023-11-22T03:19:05;103049.34;;;2.31;100.00
71974;BME280;59840;52.122;5.404;2023-11-22T03:21:33;103062.09;;;2.34;100.00
71974;BME280;59840;52.122;5.404;2023-11-22T03:24:02;103067.44;;;2.32;100.00
71974;BME280;59840;52.122;5.404;2023-11-22T03:26:30;103071.13;;;2.30;100.00
71974;BME280;59840;52.122;5.404;2023-11-22T03:28:56;103069.34;;;2.30;100.00
71974;BME280;59840;52.122;5.404;2023-11-22T03:31:23;103083.06;;;2.32;100.00
71974;BME280;59840;52.122;5.404;2023-11-22T03:33:49;103089.59;;;2.17;100.00
71974;BME280;59840;52.122;5.404;2023-11-22T03:36:16;103088.47;;;2.10;100.00
71974;BME280;59840;52.122;5.404;2023-11-22T03:38:42;103100.97;;;2.16;100.00
71974;BME280;59840;52.122;5.404;2023-11-22T03:41:09;103105.78;;;2.21;100.00
71974;BME280;59840;52.122;5.404;2023-11-22T03:43:36;103102.78;;;2.25;100.00
71974;BME280;59840;52.122;5.404;2023-11-22T03:46:03;103107.72;;;2.28;100.00
71974;BME280;59840;52.122;5.404;2023-11-22T03:48:29;103112.94;;;2.28;100.00
71974;BME280;59840;52.122;5.404;2023-11-22T03:50:56;103116.91;;;2.23;100.00
71974;BME280;59840;52.122;5.404;2023-11-22T03:53:23;103124.81;;;2.12;100.00
71974;BME280;59840;52.122;5.404;2023-11-22T03:55:49;103122.63;;;2.17;100.00
71974;BME280;59840;52.122;5.404;2023-11-22T03:58:16;103131.25;;;2.08;100.00
71974;BME280;59840;52.122;5.404;2023-11-22T04:00:44;103131.09;;;2.09;100.00
71974;BME280;59840;52.122;5.404;2023-11-22T04:03:11;103138.91;;;2.09;100.00
71974;BME280;59840;52.122;5.404;2023-11-22T04:05:37;103138.25;;;2.17;100.00
71974;BME280;59840;52.122;5.404;2023-11-22T04:08:04;103141.56;;;2.19;100.00
71974;BME280;59840;52.122;5.404;2023-11-22T04:10:31;103145.81;;;2.20;100.00
71974;BME280;59840;52.122;5.404;2023-11-22T04:12:57;103151.84;;;2.20;100.00
71974;BME280;59840;52.122;5.404;2023-11-22T04:15:24;103155.13;;;2.22;100.00
71974;BME280;59840;52.122;5.404;2023-11-22T04:17:52;103161.75;;;2.26;100.00
71974;BME280;59840;52.122;5.404;2023-11-22T04:20:21;103156.00;;;2.32;100.00
71974;BME280;59840;52.122;5.404;2023-11-22T04:22:48;103155.06;;;2.33;100.00
71974;BME280;59840;52.122;5.404;2023-11-22T04:25:14;103146.16;;;2.36;100.00
71974;BME280;59840;52.122;5.404;2023-11-22T04:27:41;103158.34;;;2.35;100.00
71974;BME280;59840;52.122;5.404;2023-11-22T04:30:09;103155.13;;;2.22;100.00
71974;BME280;59840;52.122;5.404;2023-11-22T04:32:40;103165.00;;;2.19;100.00
71974;BME280;59840;52.122;5.404;2023-11-22T04:35:16;103165.00;;;2.19;100.00
71974;BME280;59840;52.122;5.404;2023-11-22T04:37:43;103174.03;;;2.15;100.00
71974;BME280;59840;52.122;5.404;2023-11-22T04:40:11;103170.22;;;2.19;100.00
71974;BME280;59840;52.122;5.404;2023-11-22T04:42:38;103164.03;;;2.20;100.00
71974;BME280;59840;52.122;5.404;2023-11-22T04:45:04;103172.41;;;2.23;100.00
71974;BME280;59840;52.122;5.404;2023-11-22T04:47:32;103170.22;;;2.19;100.00
71974;BME280;59840;52.122;5.404;2023-11-22T04:50:00;103168.38;;;2.10;100.00
71974;BME280;59840;52.122;5.404;2023-11-22T04:52:26;103159.22;;;2.15;100.00
71974;BME280;59840;52.122;5.404;2023-11-22T04:54:55;103164.69;;;2.12;100.00
71974;BME280;59840;52.122;5.404;2023-11-22T04:57:22;103167.44;;;2.11;100.00
71974;BME280;59840;52.122;5.404;2023-11-22T04:59:48;103169.78;;;2.14;100.00
71974;BME280;59840;52.122;5.404;2023-11-22T05:02:15;103157.19;;;2.19;100.00
71974;BME280;59840;52.122;5.404;2023-11-22T05:04:42;103145.69;;;2.21;100.00
71974;BME280;59840;52.122;5.404;2023-11-22T05:07:09;103151.59;;;2.23;100.00
71974;BME280;59840;52.122;5.404;2023-11-22T05:09:35;103152.97;;;2.27;100.00
71974;BME280;59840;52.122;5.404;2023-11-22T05:12:02;103151.88;;;2.30;100.00
71974;BME280;59840;52.122;5.404;2023-11-22T05:14:29;103153.41;;;2.32;100.00
71974;BME280;59840;52.122;5.404;2023-11-22T05:16:56;103154.47;;;2.30;100.00
71974;BME280;59840;52.122;5.404;2023-11-22T05:19:23;103155.00;;;2.24;100.00
71974;BME280;59840;52.122;5.404;2023-11-22T05:21:49;103158.69;;;2.21;100.00
71974;BME280;59840;52.122;5.404;2023-11-22T05:24:16;103154.31;;;2.22;100.00
71974;BME280;59840;52.122;5.404;2023-11-22T05:26:42;103156.41;;;2.28;100.00
71974;BME280;59840;52.122;5.404;2023-11-22T05:29:09;103155.19;;;2.32;100.00
71974;BME280;59840;52.122;5.404;2023-11-22T05:31:36;103145.44;;;2.34;100.00
71974;BME280;59840;52.122;5.404;2023-11-22T05:34:04;103145.72;;;2.31;100.00
71974;BME280;59840;52.122;5.404;2023-11-22T05:36:30;103154.47;;;2.30;100.00
71974;BME280;59840;52.122;5.404;2023-11-22T05:38:57;103143.53;;;2.36;100.00
71974;BME280;59840;52.122;5.404;2023-11-22T05:41:26;103162.34;;;2.40;100.00
71974;BME280;59840;52.122;5.404;2023-11-22T05:43:53;103164.81;;;2.41;100.00
71974;BME280;59840;52.122;5.404;2023-11-22T05:46:20;103157.66;;;2.43;100.00
71974;BME280;59840;52.122;5.404;2023-11-22T05:48:51;103176.59;;;2.45;100.00
71974;BME280;59840;52.122;5.404;2023-11-22T05:51:18;103167.53;;;2.49;100.00
71974;BME280;59840;52.122;5.404;2023-11-22T05:53:45;103177.97;;;2.49;100.00
71974;BME280;59840;52.122;5.404;2023-11-22T05:56:12;103175.50;;;2.48;100.00
71974;BME280;59840;52.122;5.404;2023-11-22T05:58:39;103166.72;;;2.49;100.00
71974;BME280;59840;52.122;5.404;2023-11-22T06:01:05;103173.19;;;2.54;100.00
71974;BME280;59840;52.122;5.404;2023-11-22T06:03:33;103173.31;;;2.53;100.00
71974;BME280;59840;52.122;5.404;2023-11-22T06:06:00;103167.03;;;2.55;100.00
71974;BME280;59840;52.122;5.404;2023-11-22T06:08:27;103171.28;;;2.56;100.00
71974;BME280;59840;52.122;5.404;2023-11-22T06:10:53;103173.19;;;2.54;100.00
71974;BME280;59840;52.122;5.404;2023-11-22T06:13:23;103179.63;;;2.50;100.00
71974;BME280;59840;52.122;5.404;2023-11-22T06:15:50;103169.47;;;2.47;100.00
71974;BME280;59840;52.122;5.404;2023-11-22T06:18:16;103171.38;;;2.45;100.00
71974;BME280;59840;52.122;5.404;2023-11-22T06:20:43;103177.16;;;2.39;100.00
71974;BME280;59840;52.122;5.404;2023-11-22T06:23:10;103177.09;;;2.29;100.00
71974;BME280;59840;52.122;5.404;2023-11-22T06:25:37;103187.63;;;2.18;100.00
71974;BME280;59840;52.122;5.404;2023-11-22T06:28:03;103201.72;;;2.16;100.00
71974;BME280;59840;52.122;5.404;2023-11-22T06:30:30;103198.97;;;2.08;100.00
71974;BME280;59840;52.122;5.404;2023-11-22T06:32:57;103203.63;;;2.14;100.00
71974;BME280;59840;52.122;5.404;2023-11-22T06:35:23;103209.84;;;2.22;100.00
71974;BME280;59840;52.122;5.404;2023-11-22T06:37:50;103211.66;;;2.31;100.00
71974;BME280;59840;52.122;5.404;2023-11-22T06:40:17;103195.78;;;2.34;100.00
71974;BME280;59840;52.122;5.404;2023-11-22T06:42:43;103191.13;;;2.38;100.00
71974;BME280;59840;52.122;5.404;2023-11-22T06:45:10;103191.00;;;2.40;100.00
71974;BME280;59840;52.122;5.404;2023-11-22T06:47:37;103188.09;;;2.43;100.00
71974;BME280;59840;52.122;5.404;2023-11-22T06:50:04;103180.16;;;2.44;100.00
71974;BME280;59840;52.122;5.404;2023-11-22T06:52:39;103176.59;;;2.45;100.00
71974;BME280;59840;52.122;5.404;2023-11-22T06:55:08;103171.09;;;2.48;100.00
71974;BME280;59840;52.122;5.404;2023-11-22T06:57:35;103168.50;;;2.48;100.00
71974;BME280;59840;52.122;5.404;2023-11-22T07:00:03;103165.91;;;2.48;100.00
71974;BME280;59840;52.122;5.404;2023-11-22T07:02:34;103162.59;;;2.46;100.00
71974;BME280;59840;52.122;5.404;2023-11-22T07:05:04;103180.56;;;2.49;100.00
71974;BME280;59840;52.122;5.404;2023-11-22T07:07:40;103168.50;;;2.48;100.00
71974;BME280;59840;52.122;5.404;2023-11-22T07:10:07;103177.69;;;2.43;100.00
71974;BME280;59840;52.122;5.404;2023-11-22T07:12:34;103192.09;;;2.37;100.00
71974;BME280;59840;52.122;5.404;2023-11-22T07:15:03;103189.03;;;2.32;100.00
71974;BME280;59840;52.122;5.404;2023-11-22T07:17:32;103197.44;;;2.35;100.00
71974;BME280;59840;52.122;5.404;2023-11-22T07:20:00;103192.34;;;2.44;100.00
71974;BME280;59840;52.122;5.404;2023-11-22T07:22:27;103195.38;;;2.49;100.00
71974;BME280;59840;52.122;5.404;2023-11-22T07:24:54;103198.56;;;2.52;100.00
71974;BME280;59840;52.122;5.404;2023-11-22T07:27:21;103183.75;;;2.53;100.00
71974;BME280;59840;52.122;5.404;2023-11-22T07:29:48;103191.69;;;2.51;100.00
71974;BME280;59840;52.122;5.404;2023-11-22T07:32:18;103190.03;;;2.50;100.00
71974;BME280;59840;52.122;5.404;2023-11-22T07:34:47;103188.66;;;2.46;100.00
71974;BME280;59840;52.122;5.404;2023-11-22T07:37:13;103187.00;;;2.45;100.00
71974;BME280;59840;52.122;5.404;2023-11-22T07:39:41;103193.19;;;2.44;100.00
71974;BME280;59840;52.122;5.404;2023-11-22T07:42:09;103199.09;;;2.46;100.00
71974;BME280;59840;52.122;5.404;2023-11-22T07:44:36;103208.16;;;2.42;100.00
71974;BME280;59840;52.122;5.404;2023-11-22T07:47:04;103208.16;;;2.52;100.00
71974;BME280;59840;52.122;5.404;2023-11-22T07:49:39;103197.59;;;2.53;100.00
71974;BME280;59840;52.122;5.404;2023-11-22T07:52:06;103203.50;;;2.55;100.00
71974;BME280;59840;52.122;5.404;2023-11-22T07:54:33;103204.31;;;2.56;100.00
71974;BME280;59840;52.122;5.404;2023-11-22T07:57:01;103198.97;;;2.57;100.00
71974;BME280;59840;52.122;5.404;2023-11-22T07:59:28;103203.25;;;2.58;100.00
71974;BME280;59840;52.122;5.404;2023-11-22T08:01:55;103208.44;;;2.58;100.00
71974;BME280;59840;52.122;5.404;2023-11-22T08:04:21;103226.81;;;2.57;100.00
71974;BME280;59840;52.122;5.404;2023-11-22T08:06:49;103236.16;;;2.59;100.00
71974;BME280;59840;52.122;5.404;2023-11-22T08:09:17;103243.97;;;2.59;100.00
71974;BME280;59840;52.122;5.404;2023-11-22T08:11:46;103249.88;;;2.61;100.00
71974;BME280;59840;52.122;5.404;2023-11-22T08:14:12;103257.88;;;2.69;100.00
71974;BME280;59840;52.122;5.404;2023-11-22T08:16:40;103265.44;;;2.73;100.00
71974;BME280;59840;52.122;5.404;2023-11-22T08:19:09;103260.22;;;2.73;100.00
71974;BME280;59840;52.122;5.404;2023-11-22T08:21:36;103269.94;;;2.71;100.00
71974;BME280;59840;52.122;5.404;2023-11-22T08:24:02;103261.19;;;2.72;100.00
71974;BME280;59840;52.122;5.404;2023-11-22T08:26:30;103265.31;;;2.74;100.00
71974;BME280;59840;52.122;5.404;2023-11-22T08:28:57;103266.66;;;2.78;100.00
71974;BME280;59840;52.122;5.404;2023-11-22T08:31:24;103264.47;;;2.83;100.00
71974;BME280;59840;52.122;5.404;2023-11-22T08:33:50;103252.69;;;2.89;100.00
71974;BME280;59840;52.122;5.404;2023-11-22T08:36:17;103257.38;;;2.95;100.00
71974;BME280;59840;52.122;5.404;2023-11-22T08:38:45;103268.63;;;2.95;100.00
71974;BME280;59840;52.122;5.404;2023-11-22T08:41:11;103264.81;;;2.99;100.00
71974;BME280;59840;52.122;5.404;2023-11-22T08:43:40;103253.97;;;3.04;100.00
71974;BME280;59840;52.122;5.404;2023-11-22T08:46:07;103256.03;;;3.10;100.00
71974;BME280;59840;52.122;5.404;2023-11-22T08:48:41;103255.91;;;3.12;100.00
71974;BME280;59840;52.122;5.404;2023-11-22T08:51:08;103255.59;;;3.15;100.00
71974;BME280;59840;52.122;5.404;2023-11-22T08:53:36;103254.38;;;3.19;100.00
71974;BME280;59840;52.122;5.404;2023-11-22T08:56:04;103253.69;;;3.17;100.00
71974;BME280;59840;52.122;5.404;2023-11-22T08:58:39;103253.56;;;3.18;100.00
71974;BME280;59840;52.122;5.404;2023-11-22T09:01:06;103250.25;;;3.16;100.00
71974;BME280;59840;52.122;5.404;2023-11-22T09:03:34;103255.34;;;3.18;100.00
71974;BME280;59840;52.122;5.404;2023-11-22T09:06:01;103253.03;;;3.24;100.00
71974;BME280;59840;52.122;5.404;2023-11-22T09:08:29;103255.50;;;3.35;100.00
71974;BME280;59840;52.122;5.404;2023-11-22T09:10:57;103257.44;;;3.43;100.00
71974;BME280;59840;52.122;5.404;2023-11-22T09:13:23;103255.75;;;3.52;100.00
71974;BME280;59840;52.122;5.404;2023-11-22T09:15:51;103260.44;;;3.58;100.00
71974;BME280;59840;52.122;5.404;2023-11-22T09:18:17;103251.91;;;3.65;100.00
71974;BME280;59840;52.122;5.404;2023-11-22T09:20:44;103252.19;;;3.72;100.00
71974;BME280;59840;52.122;5.404;2023-11-22T09:23:11;103261.09;;;3.79;100.00
71974;BME280;59840;52.122;5.404;2023-11-22T09:25:40;103269.19;;;3.86;100.00
71974;BME280;59840;52.122;5.404;2023-11-22T09:28:07;103273.16;;;3.90;100.00
71974;BME280;59840;52.122;5.404;2023-11-22T09:30:35;103265.88;;;3.93;100.00
71974;BME280;59840;52.122;5.404;2023-11-22T09:33:09;103273.44;;;3.96;100.00
71974;BME280;59840;52.122;5.404;2023-11-22T09:35:37;103271.38;;;4.00;100.00
71974;BME280;59840;52.122;5.404;2023-11-22T09:38:06;103275.06;;;4.07;100.00
71974;BME280;59840;52.122;5.404;2023-11-22T09:43:06;103266.91;;;4.20;100.00
71974;BME280;59840;52.122;5.404;2023-11-22T09:45:33;103261.09;;;4.26;100.00
71974;BME280;59840;52.122;5.404;2023-11-22T09:48:02;103264.25;;;4.29;100.00
71974;BME280;59840;52.122;5.404;2023-11-22T09:50:50;103260.94;;;4.37;100.00
71974;BME280;59840;52.122;5.404;2023-11-22T09:56:03;103260.91;;;4.47;100.00
71974;BME280;59840;52.122;5.404;2023-11-22T09:58:31;103263.88;;;4.52;100.00
71974;BME280;59840;52.122;5.404;2023-11-22T10:01:02;103265.09;;;4.57;100.00
71974;BME280;59840;52.122;5.404;2023-11-22T10:03:34;103270.03;;;4.60;100.00
71974;BME280;59840;52.122;5.404;2023-11-22T10:06:01;103262.88;;;4.62;100.00
71974;BME280;59840;52.122;5.404;2023-11-22T10:08:30;103251.84;;;4.68;100.00
71974;BME280;59840;52.122;5.404;2023-11-22T10:10:58;103240.41;;;4.69;100.00
71974;BME280;59840;52.122;5.404;2023-11-22T10:13:26;103246.31;;;4.71;100.00
71974;BME280;59840;52.122;5.404;2023-11-22T10:15:53;103232.28;;;4.72;100.00
71974;BME280;59840;52.122;5.404;2023-11-22T10:18:20;103221.81;;;4.72;100.00
71974;BME280;59840;52.122;5.404;2023-11-22T10:20:49;103241.34;;;4.78;100.00
71974;BME280;59840;52.122;5.404;2023-11-22T10:23:17;103246.41;;;4.80;100.00
71974;BME280;59840;52.122;5.404;2023-11-22T10:25:48;103241.72;;;4.83;100.00
71974;BME280;59840;52.122;5.404;2023-11-22T10:28:18;103234.06;;;4.90;100.00
71974;BME280;59840;52.122;5.404;2023-11-22T10:30:46;103233.63;;;4.94;100.00
71974;BME280;59840;52.122;5.404;2023-11-22T10:33:14;103238.44;;;4.99;100.00
71974;BME280;59840;52.122;5.404;2023-11-22T10:35:46;103219.81;;;5.02;100.00
71974;BME280;59840;52.122;5.404;2023-11-22T10:38:17;103216.63;;;5.08;100.00
71974;BME280;59840;52.122;5.404;2023-11-22T10:40:45;103222.09;;;5.15;100.00
71974;BME280;59840;52.122;5.404;2023-11-22T10:43:12;103220.63;;;5.20;100.00
71974;BME280;59840;52.122;5.404;2023-11-22T10:45:40;103216.75;;;5.24;100.00
71974;BME280;59840;52.122;5.404;2023-11-22T10:48:14;103209.56;;;5.26;100.00
71974;BME280;59840;52.122;5.404;2023-11-22T10:50:44;103203.66;;;5.24;100.00
71974;BME280;59840;52.122;5.404;2023-11-22T10:53:15;103205.00;;;5.28;100.00
71974;BME280;59840;52.122;5.404;2023-11-22T10:55:45;103205.38;;;5.33;100.00
71974;BME280;59840;52.122;5.404;2023-11-22T10:58:16;103201.13;;;5.32;100.00
71974;BME280;59840;52.122;5.404;2023-11-22T11:00:46;103197.81;;;5.30;100.00
71974;BME280;59840;52.122;5.404;2023-11-22T11:03:20;103204.56;;;5.33;100.00
71974;BME280;59840;52.122;5.404;2023-11-22T11:05:58;103211.44;;;5.34;100.00
71974;BME280;59840;52.122;5.404;2023-11-22T11:08:25;103210.16;;;5.38;100.00
71974;BME280;59840;52.122;5.404;2023-11-22T11:10:54;103197.97;;;5.47;100.00
71974;BME280;59840;52.122;5.404;2023-11-22T11:13:25;103185.25;;;5.52;100.00
71974;BME280;59840;52.122;5.404;2023-11-22T11:15:53;103165.28;;;5.59;100.00
71974;BME280;59840;52.122;5.404;2023-11-22T11:18:20;103148.50;;;5.69;100.00
71974;BME280;59840;52.122;5.404;2023-11-22T11:20:58;103146.75;;;5.78;100.00
71974;BME280;59840;52.122;5.404;2023-11-22T11:23:30;103139.09;;;5.85;100.00
71974;BME280;59840;52.122;5.404;2023-11-22T11:25:59;103134.06;;;5.91;100.00
71974;BME280;59840;52.122;5.404;2023-11-22T11:28:45;103121.63;;;5.93;100.00
71974;BME280;59840;52.122;5.404;2023-11-22T11:31:14;103132.78;;;5.95;100.00
71974;BME280;59840;52.122;5.404;2023-11-22T11:36:27;103112.44;;;5.89;100.00
71974;BME280;59840;52.122;5.404;2023-11-22T11:38:55;103107.19;;;5.89;100.00
71974;BME280;59840;52.122;5.404;2023-11-22T11:41:27;103097.53;;;5.90;100.00
71974;BME280;59840;52.122;5.404;2023-11-22T11:43:56;103098.66;;;5.87;100.00
71974;BME280;59840;52.122;5.404;2023-11-22T11:46:24;103097.03;;;5.86;100.00
71974;BME280;59840;52.122;5.404;2023-11-22T11:48:54;103104.06;;;5.86;100.00
71974;BME280;59840;52.122;5.404;2023-11-22T11:51:23;103101.75;;;5.83;100.00
71974;BME280;59840;52.122;5.404;2023-11-22T11:53:50;103111.41;;;5.82;100.00
71974;BME280;59840;52.122;5.404;2023-11-22T11:56:17;103104.53;;;5.81;100.00
71974;BME280;59840;52.122;5.404;2023-11-22T11:58:45;103103.56;;;5.82;100.00
71974;BME280;59840;52.122;5.404;2023-11-22T12:01:17;103100.63;;;5.85;100.00
71974;BME280;59840;52.122;5.404;2023-11-22T12:03:43;103096.72;;;5.89;100.00
71974;BME280;59840;52.122;5.404;2023-11-22T12:06:14;103100.00;;;5.91;100.00
71974;BME280;59840;52.122;5.404;2023-11-22T12:08:40;103097.22;;;5.93;100.00
71974;BME280;59840;52.122;5.404;2023-11-22T12:11:07;103090.69;;;5.97;100.00
71974;BME280;59840;52.122;5.404;2023-11-22T12:13:35;103077.28;;;6.00;100.00
71974;BME280;59840;52.122;5.404;2023-11-22T12:16:05;103088.25;;;6.03;100.00
71974;BME280;59840;52.122;5.404;2023-11-22T12:18:42;103091.72;;;6.04;100.00
71974;BME280;59840;52.122;5.404;2023-11-22T12:21:10;103088.09;;;6.05;100.00
71974;BME280;59840;52.122;5.404;2023-11-22T12:23:41;103079.25;;;6.06;100.00
71974;BME280;59840;52.122;5.404;2023-11-22T12:26:12;103067.66;;;6.09;100.00
71974;BME280;59840;52.122;5.404;2023-11-22T12:28:40;103075.69;;;6.15;100.00
71974;BME280;59840;52.122;5.404;2023-11-22T12:31:18;103069.47;;;6.24;100.00
71974;BME280;59840;52.122;5.404;2023-11-22T12:33:45;103076.22;;;6.35;100.00
71974;BME280;59840;52.122;5.404;2023-11-22T12:36:17;103068.53;;;6.42;100.00
71974;BME280;59840;52.122;5.404;2023-11-22T12:38:44;103068.88;;;6.47;100.00
71974;BME280;59840;52.122;5.404;2023-11-22T12:41:11;103066.25;;;6.47;100.00
71974;BME280;59840;52.122;5.404;2023-11-22T12:43:37;103051.66;;;6.44;100.00
71974;BME280;59840;52.122;5.404;2023-11-22T12:46:16;103059.38;;;6.46;100.00
71974;BME280;59840;52.122;5.404;2023-11-22T12:48:44;103052.81;;;6.42;100.00
71974;BME280;59840;52.122;5.404;2023-11-22T12:51:15;103046.72;;;6.41;100.00
71974;BME280;59840;52.122;5.404;2023-11-22T12:53:47;103046.72;;;6.41;100.00
71974;BME280;59840;52.122;5.404;2023-11-22T12:56:14;103043.28;;;6.41;100.00
71974;BME280;59840;52.122;5.404;2023-11-22T12:58:41;103043.28;;;6.41;100.00
71974;BME280;59840;52.122;5.404;2023-11-22T13:01:07;103032.97;;;6.39;100.00
71974;BME280;59840;52.122;5.404;2023-11-22T13:03:34;103030.34;;;6.39;100.00